Home > Products > Valid Products > TAF

000
FTUS43 KABR 172300
TAFATY
TAF
KATY 172321Z 1800/1824 VRB06KT P6SM SKC
     FM180500 15006KT P6SM OVC080
     FM181800 17008KT P6SM OVC025=



000
FTUS43 KABR 172300
TAFABR
TAF
KABR 172321Z 1800/1824 12006KT P6SM SKC
     FM180300 13006KT P6SM OVC080
     FM181700 17008KT P6SM OVC025=



000
FTUS43 KABR 172300
TAFPIR
TAF
KPIR 172321Z 1800/1824 12010KT P6SM OVC009
     FM181700 15008KT P6SM BKN015 OVC070=



000
FTUS43 KABR 172300
TAFMBG
TAF
KMBG 172321Z 1800/1824 14010KT P6SM OVC090
     FM180600 15008KT P6SM OVC010=



000
FTUS43 KABR 172200 AAA
TAFPIR
TAF AMD
KPIR 172256Z 1723/1818 13013KT P6SM OVC010
     FM181700 16006KT P6SM OVC100=



000
FTUS43 KABR 172100 AAA
TAFMBG
TAF AMD
KMBG 172144Z 1722/1818 16008KT P6SM SCT016
     FM180000 14006KT P6SM OVC016=



000
FTUS43 KABR 172000 AAA
TAFABR
TAF AMD
KABR 172023Z 1720/1818 08005KT P6SM SKC
     FM172200 VRB05KT P6SM SCT250
     FM181300 15006KT P6SM OVC050=



000
FTUS43 KABR 171900 AAA
TAFABR
TAF AMD
KABR 171908Z 1719/1818 VRB04KT P6SM SCT013
      TEMPO 1719/1721 BKN013
     FM172200 VRB05KT P6SM SCT250
     FM181300 15006KT P6SM OVC050=



000
FTUS43 KABR 171700
TAFATY
TAF
KATY 171729Z 1718/1818 VRB04KT P6SM SKC
     FM172300 VRB05KT P6SM SCT250
     FM181400 15006KT P6SM OVC050=



000
FTUS43 KABR 171700
TAFMBG
TAF
KMBG 171729Z 1718/1818 16008KT P6SM OVC011
     FM181200 14006KT P6SM OVC015=



000
FTUS43 KABR 171700
TAFPIR
TAF
KPIR 171729Z 1718/1818 13013KT P6SM OVC007
     FM180500 14007KT P6SM OVC012=



000
FTUS43 KABR 171700
TAFABR
TAF
KABR 171729Z 1718/1818 VRB04KT P6SM SCT008
      TEMPO 1718/1720 BKN008
     FM172200 VRB05KT P6SM SCT250
     FM181300 15006KT P6SM OVC050=



000
FTUS43 KABR 171600 AAA
TAFPIR
TAF AMD
KPIR 171613Z 1716/1812 13011KT P6SM OVC006
     FM171800 12011KT P6SM OVC010
     FM180500 11007KT P6SM OVC050=



000
FTUS43 KABR 171100
TAFPIR
TAF
KPIR 171123Z 1712/1812 13008KT P6SM OVC007
     FM171700 12011KT P6SM OVC015
     FM180500 11007KT P6SM OVC050=



000
FTUS43 KABR 171100
TAFMBG
TAF
KMBG 171123Z 1712/1812 12008KT P6SM OVC015
     FM180000 12008KT P6SM OVC050=



000
FTUS43 KABR 171100
TAFATY
TAF
KATY 171123Z 1712/1812 VRB03KT P6SM SKC
     FM172000 VRB04KT P6SM BKN250
     FM180600 13006KT P6SM OVC100=



000
FTUS43 KABR 171100
TAFABR
TAF
KABR 171123Z 1712/1812 VRB05KT P6SM SKC
     FM171900 VRB05KT P6SM BKN250
     FM180400 13007KT P6SM OVC100=



000
FTUS43 KABR 170900 AAA
TAFPIR
TAF AMD
KPIR 170925Z 1709/1806 10006KT P6SM OVC009=



000
FTUS43 KABR 170700 AAB
TAFATY
TAF AMD
KATY 170701Z 1707/1806 VRB03KT P6SM SKC
     FM171800 09006KT P6SM FEW250=



000
FTUS43 KABR 170700 AAA
TAFMBG
TAF AMD
KMBG 170701Z 1707/1806 15006KT P6SM OVC015
     FM171800 12008KT P6SM FEW250=



000
FTUS43 KABR 170500 AAA
TAFATY
TAF AMD
KATY 170549Z 1706/1806 VRB06KT 3SM BR FEW003
      TEMPO 1706/1710 2SM BR SCT003
     FM171800 09006KT P6SM FEW250=



000
FTUS43 KABR 170500
TAFPIR
TAF
KPIR 170520Z 1706/1806 10008KT P6SM OVC016=



000
FTUS43 KABR 170500
TAFABR
TAF
KABR 170520Z 1706/1806 VRB06KT P6SM SKC
     FM171600 10006KT P6SM FEW250=



000
FTUS43 KABR 170500
TAFATY
TAF
KATY 170520Z 1706/1806 VRB06KT P6SM SKC
      TEMPO 1706/1710 3SM BR SCT003
     FM171800 09006KT P6SM FEW250=



000
FTUS43 KABR 170500
TAFMBG
TAF
KMBG 170520Z 1706/1806 09006KT P6SM OVC015
      TEMPO 1706/1708 SCT015
     FM170800 12008KT P6SM FEW250=



000
FTUS43 KABR 162300
TAFMBG
TAF
KMBG 162335Z 1700/1724 VRB06KT P6SM OVC016
     FM170400 11006KT P6SM OVC016=



000
FTUS43 KABR 162300
TAFATY
TAF
KATY 162335Z 1700/1724 35009KT P6SM FEW013
     FM171700 09006KT P6SM SCT015=



000
FTUS43 KABR 162300
TAFABR
TAF
KABR 162335Z 1700/1724 03006KT P6SM SKC
     FM171600 10006KT P6SM FEW250=



000
FTUS43 KABR 162300
TAFPIR
TAF
KPIR 162335Z 1700/1724 VRB06KT P6SM OVC018
     FM170500 10008KT P6SM OVC018=



000
FTUS43 KABR 162100 AAA
TAFPIR
TAF AMD
KPIR 162112Z 1621/1718 01008KT P6SM OVC018
     FM170000 04005KT P6SM OVC010
     FM171500 10005KT P6SM OVC010=



000
FTUS43 KABR 162100 AAA
TAFPIR
TAF AMD
KPIR 162112Z 1621/1718 01008KT P6SM OVC018
     FM170000 04005KT P6SM OVC010
     FM171500 10005KT P6SM OVC010=



000
FTUS43 KABR 162100 AAA
TAFMBG
TAF AMD
KMBG 162112Z 1621/1718 01005KT P6SM OVC018
     FM170000 04006KT P6SM OVC010
     FM170900 10006KT P6SM OVC010=



000
FTUS43 KABR 162100 AAA
TAFMBG
TAF AMD
KMBG 162112Z 1621/1718 01005KT P6SM OVC018
     FM170000 04006KT P6SM OVC010
     FM170900 10006KT P6SM OVC010=



000
FTUS43 KABR 162100 AAA
TAFATY
TAF AMD
KATY 162111Z 1621/1718 32010KT P6SM BKN016
     FM170300 33006KT P6SM OVC015
     FM170900 35003KT P6SM SCT015=



000
FTUS43 KABR 162100 AAA
TAFATY
TAF AMD
KATY 162111Z 1621/1718 32010KT P6SM BKN016
     FM170300 33006KT P6SM OVC015
     FM170900 35003KT P6SM SCT015=



000
FTUS43 KABR 161700
TAFABR
TAF
KABR 161725Z 1618/1718 35017KT P6SM OVC050
     FM170000 02005KT P6SM SCT050
     FM171600 10005KT P6SM FEW250=



000
FTUS43 KABR 161700
TAFATY
TAF
KATY 161725Z 1618/1718 34015KT P6SM OVC011
     FM162100 32011KT P6SM OVC030
     FM170300 33006KT P6SM OVC015
     FM170900 35003KT P6SM SCT015=



000
FTUS43 KABR 161700
TAFPIR
TAF
KPIR 161725Z 1618/1718 33012KT P6SM OVC019
     FM170000 04005KT P6SM OVC010
     FM171500 10005KT P6SM OVC010=



000
FTUS43 KABR 161700
TAFMBG
TAF
KMBG 161725Z 1618/1718 35010KT P6SM OVC021
     FM170000 04006KT P6SM OVC010
     FM170900 10006KT P6SM OVC010=



000
FTUS43 KABR 161100
TAFABR
TAF
KABR 161135Z 1612/1712 35015KT P6SM SKC
     FM161600 35009KT P6SM BKN015
     FM170000 02005KT P6SM SKC=



000
FTUS43 KABR 161100
TAFPIR
TAF
KPIR 161135Z 1612/1712 36011KT P6SM OVC015
      TEMPO 1612/1616 P6SM -SN
     FM170000 08005KT P6SM OVC010=



000
FTUS43 KABR 161100
TAFMBG
TAF
KMBG 161135Z 1612/1712 36010KT P6SM OVC020
      TEMPO 1612/1616 P6SM -SN OVC015
     FM170000 10006KT P6SM OVC010=



000
FTUS43 KABR 161100
TAFATY
TAF
KATY 161135Z 1612/1712 35017KT P6SM BKN015
      TEMPO 1612/1616 5SM -SN
     FM170000 35007KT P6SM SKC=



000
FTUS43 KABR 160900 AAA
TAFMBG
TAF AMD
KMBG 160946Z 1610/1706 35015KT P6SM OVC020
      TEMPO 1610/1614 P6SM -SN
     FM162200 VRB06KT P6SM OVC015=



000
FTUS43 KABR 160900 AAA
TAFATY
TAF AMD
KATY 160943Z 1610/1706 34017G25KT P6SM OVC015
      TEMPO 1610/1614 5SM -SN
     FM161400 34015KT P6SM BKN015=



000
FTUS43 KABR 160900 AAA
TAFABR
TAF AMD
KABR 160939Z 1610/1706 35016KT P6SM SKC
      TEMPO 1613/1616 BKN015
     FM161600 35009KT P6SM BKN015=



000
FTUS43 KABR 160500
TAFATY
TAF
KATY 160532Z 1606/1706 34024G34KT 5SM -SN BLSN OVC016
      TEMPO 1607/1611 FEW015
     FM161100 34019KT 5SM BLSN OVC015
     FM161800 34009KT P6SM OVC010=



000
FTUS43 KABR 160500
TAFABR
TAF
KABR 160532Z 1606/1706 36018G24KT 6SM -SN OVC022
      TEMPO 1606/1610 FEW025
     FM161000 35015KT P6SM OVC015
     FM161600 35009KT P6SM OVC015=



000
FTUS43 KABR 160500
TAFPIR
TAF
KPIR 160532Z 1606/1706 34015G23KT P6SM OVC016
     FM160900 33008KT P6SM OVC015
     FM161800 VRB06KT P6SM OVC015=



000
FTUS43 KABR 160500
TAFMBG
TAF
KMBG 160532Z 1606/1706 34018G24KT 6SM -SN OVC015
     FM160900 34008KT P6SM OVC015
     FM162200 VRB06KT P6SM OVC015=



000
FTUS43 KABR 160400 AAA
TAFMBG
TAF AMD
KMBG 160446Z 1605/1624 34018G24KT 6SM -SN OVC015
     FM160900 34010KT P6SM OVC015=



000
FTUS43 KABR 160400 AAB
TAFPIR
TAF AMD
KPIR 160442Z 1605/1624 34021G31KT 6SM BLSN OVC016
     FM160700 33015KT P6SM OVC015
     FM161300 33008KT P6SM OVC015
     FM162000 VRB06KT P6SM OVC015=



000
FTUS43 KABR 160400 AAB
TAFATY
TAF AMD
KATY 160440Z 1605/1624 35024G34KT 5SM -SN BLSN OVC016
     FM161100 35019KT 5SM BLSN OVC015
     FM161200 33011KT P6SM OVC010=



000
FTUS43 KABR 160400 AAB
TAFABR
TAF AMD
KABR 160438Z 1605/1624 36024G32KT 6SM -SN BLSN OVC022
     FM161000 35018KT P6SM OVC015
     FM161600 35011KT P6SM OVC015=



000
FTUS43 KABR 160300 AAA
TAFABR
TAF AMD
KABR 160313Z 1603/1624 35024G32KT P6SM OVC020
     FM160700 34018KT P6SM OVC015
     FM161600 35011KT P6SM OVC015=



000
FTUS43 KABR 160200 AAA
TAFPIR
TAF AMD
KPIR 160243Z 1603/1624 34021G31KT 5SM BLSN OVC016
     FM160500 33015KT P6SM OVC015
     FM161200 33010KT P6SM OVC015=



000
FTUS43 KABR 160200 AAA
TAFATY
TAF AMD
KATY 160241Z 1603/1624 35024G34KT 3SM BLSN OVC015
     FM160600 35022G32KT 5SM BLSN OVC015
     FM161200 33015KT P6SM OVC010=



000
FTUS43 KABR 152300
TAFPIR
TAF
KPIR 152320Z 1600/1624 34027G33KT 4SM BLSN BR OVC014
     FM160500 33015KT P6SM OVC015
     FM161200 33010KT P6SM OVC015=



000
FTUS43 KABR 152300
TAFABR
TAF
KABR 152320Z 1600/1624 35024G32KT P6SM OVC015
     FM160700 34018KT P6SM OVC015
     FM161600 35011KT P6SM OVC015=



000
FTUS43 KABR 152300
TAFMBG
TAF
KMBG 152320Z 1600/1624 34023G31KT P6SM OVC015
     FM160300 34018G24KT P6SM OVC015
     FM160900 34010KT P6SM OVC015=



000
FTUS43 KABR 152300
TAFATY
TAF
KATY 152320Z 1600/1624 35024G34KT 1SM -SN BLSN SCT015 OVC022
     FM160600 35022G32KT 5SM BLSN OVC015
     FM161200 33015KT P6SM OVC010=



000
FTUS43 KABR 152300 AAA
TAFMBG
TAF AMD
KMBG 152314Z 1523/1618 34023G31KT P6SM OVC015
     FM160300 34018G24KT P6SM OVC015
     FM160900 34010KT P6SM OVC015=



000
FTUS43 KABR 152300 AAB
TAFPIR
TAF AMD
KPIR 152310Z 1523/1618 34027G33KT 4SM BLSN BR OVC014
     FM160500 33015KT P6SM OVC015
     FM161200 33010KT P6SM OVC015=



000
FTUS43 KABR 152300 AAA
TAFABR
TAF AMD
KABR 152303Z 1523/1618 35024G32KT P6SM OVC015
     FM160700 34018KT P6SM OVC015
     FM161600 35011KT P6SM OVC015=



000
FTUS43 KABR 152200 AAA
TAFATY
TAF AMD
KATY 152250Z 1523/1618 35024G34KT 3/4SM -SN BLSN BR FEW012 OVC017
     FM160600 35022G32KT 5SM BLSN OVC015
     FM161200 33015KT P6SM OVC010=



000
FTUS43 KABR 152100 AAA
TAFPIR
TAF AMD
KPIR 152149Z 1522/1618 35024G31KT 2SM -SN BR OVC010
      TEMPO 1522/1524 5SM -SN OVC030
     FM160000 33015KT P6SM OVC015=



000
FTUS43 KABR 152100 AAA
TAFPIR
TAF AMD
KPIR 152149Z 1522/1618 35024G31KT 2SM -SN BR OVC010
      TEMPO 1522/1524 5SM -SN OVC030
     FM160000 33015KT P6SM OVC015=



000
FTUS43 KABR 151700
TAFPIR
TAF
KPIR 151720Z 1518/1618 35024G31KT 2SM -SN BR OVC010
      TEMPO 1520/1522 5SM -SN OVC030
     FM152200 33015KT P6SM OVC015=



000
FTUS43 KABR 151700
TAFATY
TAF
KATY 151720Z 1518/1618 01025G34KT P6SM OVC010
      TEMPO 1518/1519 4SM -FZRAPL BR
     FM151900 36020G30KT 1SM -SN OVC005
      TEMPO 1519/1523 1/2SM SN
     FM160300 35020G30KT P6SM OVC010=



000
FTUS43 KABR 151700
TAFMBG
TAF
KMBG 151720Z 1518/1618 36022G34KT P6SM OVC011
     FM160000 34017KT P6SM OVC015
     FM161500 35008KT P6SM OVC015=



000
FTUS43 KABR 151700
TAFABR
TAF
KABR 151720Z 1518/1618 36025G34KT P6SM OVC012
      TEMPO 1518/1521 3SM -SN OVC010
     FM160000 34018KT P6SM OVC015=



000
FTUS43 KABR 151300 AAA
TAFMBG
TAF AMD
KMBG 151336Z 1514/1612 35020G30KT P6SM OVC010
      TEMPO 1514/1516 P6SM -FZDZ OVC008
     FM160000 34017KT P6SM OVC015=



000
FTUS43 KABR 151300 AAA
TAFPIR
TAF AMD
KPIR 151333Z 1514/1612 35020G28KT 2SM -SN BR OVC010
      TEMPO 1514/1516 3/4SM -FZRASN BR OVC007
     FM151600 34022G33KT 1SM -SN OVC010
     FM160000 33015KT P6SM OVC015=



000
FTUS43 KABR 151300 AAA
TAFATY
TAF AMD
KATY 151330Z 1514/1612 36017G26KT P6SM OVC008
      TEMPO 1514/1516 5SM -FZRA BR OVC010
     FM151600 36018G27KT P6SM -FZRA OVC008
      TEMPO 1516/1519 2SM -FZRAPL BR
     FM151900 36020G30KT 1SM -SN OVC005
      TEMPO 1519/1523 1/2SM SN
     FM160300 35020G30KT P6SM OVC010=



000
FTUS43 KABR 151300 AAA
TAFABR
TAF AMD
KABR 151327Z 1513/1612 36018G28KT P6SM OVC008
      TEMPO 1514/1516 P6SM -FZRA
     FM151600 35020G30KT 5SM -SN OVC009
      TEMPO 1516/1519 3SM -SN OVC010
     FM160000 34018KT P6SM OVC015=



000
FTUS43 KABR 151100
TAFPIR
TAF
KPIR 151140Z 1512/1612 35016G24KT 3SM -SN BR OVC010
      TEMPO 1512/1514 1SM -FZRASN BR OVC008
     FM151400 34022G33KT 1SM -SN OVC010
     FM160000 33015KT P6SM OVC015=



000
FTUS43 KABR 151100
TAFATY
TAF
KATY 151140Z 1512/1612 36015G23KT P6SM -FZRA OVC006
      TEMPO 1512/1515 3SM FZRA BR
     FM151500 36018G27KT 3SM -FZRA BR OVC007
      TEMPO 1515/1519 1SM -FZRAPL BR
     FM151900 36020G30KT 1SM -SN OVC005
      TEMPO 1519/1523 1/2SM SN
     FM160300 35020G30KT P6SM OVC010=



000
FTUS43 KABR 151100
TAFABR
TAF
KABR 151140Z 1512/1612 36015G24KT P6SM -FZRA OVC007
      TEMPO 1512/1515 3SM -FZRAPL
     FM151500 35020G30KT 3SM -SN OVC007
      TEMPO 1515/1519 2SM -SN OVC010
     FM160000 34018KT P6SM OVC015=



000
FTUS43 KABR 151100
TAFMBG
TAF
KMBG 151140Z 1512/1612 35019G27KT P6SM -FZDZ OVC007
      TEMPO 1512/1516 OVC010
     FM151600 34020G30KT P6SM OVC015
     FM160000 34017KT P6SM OVC015=



000
FTUS43 KABR 151000 AAC
TAFATY
TAF AMD
KATY 151043Z 1511/1606 36013G20KT P6SM -FZDZ OVC006
      TEMPO 1511/1514 5SM -FZRA BR
     FM151600 36020G30KT 1SM -SN BR OVC007
     FM160300 35020KT P6SM OVC015=



000
FTUS43 KABR 150800 AAB
TAFMBG
TAF AMD
KMBG 150855Z 1509/1606 33015G23KT P6SM -FZDZ OVC010
      TEMPO 1509/1513 5SM -FZDZ BR OVC006
     FM151300 34020G30KT P6SM OVC015
     FM160000 34015KT P6SM OVC015=



000
FTUS43 KABR 150800 AAA
TAFPIR
TAF AMD
KPIR 150854Z 1509/1606 33014G24KT P6SM OVC025
      TEMPO 1509/1513 4SM -FZRASN BR OVC010
     FM151300 34020G30KT 2SM -SN OVC015
     FM151500 34025G35KT 1SM -SN OVC015
     FM160000 33015KT P6SM OVC015=



000
FTUS43 KABR 150800 AAB
TAFATY
TAF AMD
KATY 150851Z 1509/1606 33014G21KT P6SM -FZDZ OVC005
      TEMPO 1509/1513 5SM -FZDZ BR OVC003
     FM151300 35020G30KT P6SM -FZDZ OVC003
     FM151600 36020G30KT 1SM -SN BR OVC007
     FM160300 35020KT P6SM OVC015=



000
FTUS43 KABR 150800 AAA
TAFABR
TAF AMD
KABR 150849Z 1509/1606 35015G22KT P6SM -FZDZ OVC006
      TEMPO 1509/1513 5SM -FZDZ BR
     FM151600 35020G30KT P6SM OVC007
     FM160000 34018KT P6SM OVC015=



000
FTUS43 KABR 150600 CCA
TAFABR
TAF COR
KABR 150643Z 1507/1606 34014KT P6SM -FZDZ OVC012
      TEMPO 1507/1511 5SM -FZDZ BR OVC006
     FM151400 35020G30KT 5SM BR OVC007
     FM160000 34018KT P6SM OVC015=



000
FTUS43 KABR 150600 AAA
TAFMBG
TAF AMD
KMBG 150642Z 1507/1606 33015G23KT P6SM -FZDZ OVC010
      TEMPO 1507/1511 5SM -FZDZ BR OVC006
     FM151200 34020G30KT P6SM OVC015
     FM160000 34015KT P6SM OVC015=



000
FTUS43 KABR 150600 AAA
TAFATY
TAF AMD
KATY 150639Z 1507/1606 33014KT P6SM -FZDZ OVC005
      TEMPO 1507/1511 3SM -FZDZ BR OVC003
     FM151100 35020G30KT 3SM -FZDZ BR OVC003
     FM151600 36020G30KT 1SM -SN BR OVC007
     FM160300 35020KT P6SM OVC015=



000
FTUS43 KABR 150600 AAA
TAFABR
TAF AMD
KABR 150634Z 1507/1606 34014KT P6SM -FZDZ OVC012
      TEMPO 1507/1511 5SM -FZDZ BR OVC010
     FM151400 35020G30KT 5SM BR OVC007
     FM160000 34018KT P6SM OVC015=



000
FTUS43 KABR 150500
TAFMBG
TAF
KMBG 150527Z 1506/1606 33012KT 4SM BR OVC007
     FM151200 34020G30KT P6SM OVC015
     FM160000 34015KT P6SM OVC015=



000
FTUS43 KABR 150500
TAFABR
TAF
KABR 150527Z 1506/1606 34007KT P6SM OVC010
     FM151300 35020G30KT 4SM BR OVC007
     FM160000 34018KT P6SM OVC015=



000
FTUS43 KABR 150500
TAFPIR
TAF
KPIR 150527Z 1506/1606 33014KT P6SM OVC025
      TEMPO 1507/1510 4SM -FZRA OVC015
     FM151000 34020G30KT 2SM -SN BR OVC015
     FM151500 34025G35KT 1SM -SN BLSN OVC015
     FM160000 33015KT P6SM OVC015=



000
FTUS43 KABR 150500
TAFATY
TAF
KATY 150527Z 1506/1606 32007KT 4SM BR OVC003
     FM151300 35020G30KT 1SM -FZDZ BR OVC003
     FM151600 36020G30KT 1/2SM -SN FG OVC003
     FM160300 35020KT P6SM OVC015=



000
FTUS43 KABR 150400 AAB
TAFMBG
TAF AMD
KMBG 150402Z 1504/1524 33012KT 5SM BR OVC009
     FM151200 34020G30KT P6SM -SN OVC015=



000
FTUS43 KABR 150400 AAB
TAFMBG
TAF AMD
KMBG 150402Z 1504/1524 33012KT 5SM BR OVC009
     FM151200 34020G30KT P6SM -SN OVC015=



000
FTUS43 KABR 150300 AAA
TAFABR
TAF AMD
KABR 150334Z 1504/1524 34011KT P6SM OVC011
     FM151200 35014G23KT 4SM BR OVC007
     FM152000 35020G30KT 2SM -SN BR OVC007=



000
FTUS43 KABR 150300 AAA
TAFABR
TAF AMD
KABR 150334Z 1504/1524 34011KT P6SM OVC011
     FM151200 35014G23KT 4SM BR OVC007
     FM152000 35020G30KT 2SM -SN BR OVC007=



000
FTUS43 KABR 150200 AAA
TAFMBG
TAF AMD
KMBG 150213Z 1502/1524 33016G21KT P6SM OVC015
     FM151200 34020G30KT P6SM -SN OVC015=



000
FTUS43 KABR 150200 AAA
TAFPIR
TAF AMD
KPIR 150212Z 1502/1524 34018KT P6SM OVC010
     FM151100 34024G35KT 2SM -SN BR OVC015=



000
FTUS43 KABR 150100 AAA
TAFATY
TAF AMD
KATY 150108Z 1501/1524 30008KT 2SM BR OVC002
     FM151100 35015KT 1SM -FZDZ BR OVC003
     FM151600 36020G30KT 1/2SM -SN FG OVC003=



    US Dept of Commerce
    National Oceanic and Atmospheric Administration
    National Weather Service
    1325 East West Highway
    Silver Spring, MD 20910
    Page Author: NWS Internet Services Team
Disclaimer
Information Quality
Credits
Glossary
Privacy Policy
Freedom of Information Act (FOIA)
About Us
Career Opportunities